Preston Park, Pennsylvania
Current Conditions -  °F | °C
As of 12:55 PM on Sunday 21 Dec 2014 (Local Time) from KMSV Reporting Station
Overcast Overcast  
Wind Chill: 21°   Ceiling: 1500
Heat Index: 28°   Visibility: 10mi
Dew Point: 25°   Wind: 7mph
Humidity: 86%   Direction: 300°WNW
Pressure: 30.25"   Gusts: NA
Location:  41.88°N, 75.36°W
Report Text: KMSV 211755Z AUTO 30006KT 10SM OVC015 M02/M04 A3025 RMK AO1 11020 21040 57010
Loading
Personal Weather Stations






























Interactive Weather Map New forecast layout! Learn more

10-Day Weather Forecast

Advertisements
Track Severe Weather on mobile